createdAt,value
2018-11-29T00:00:41.487Z,21.67
2018-11-29T00:03:11.327Z,20.93
2018-11-29T00:05:40.254Z,20.90
2018-11-29T00:08:08.633Z,20.33
2018-11-29T00:10:36.980Z,20.57
2018-11-29T00:13:05.619Z,21.00
2018-11-29T00:15:34.307Z,20.63
2018-11-29T00:18:02.690Z,19.60
2018-11-29T00:20:31.075Z,20.77
2018-11-29T00:22:59.395Z,20.27
2018-11-29T00:25:27.724Z,20.97
2018-11-29T00:27:56.178Z,19.30
2018-11-29T00:30:25.285Z,20.80
2018-11-29T00:32:54.764Z,21.57
2018-11-29T00:35:23.105Z,23.33
2018-11-29T00:37:51.470Z,21.73
2018-11-29T00:40:21.750Z,22.27
2018-11-29T00:42:50.109Z,24.10
2018-11-29T00:45:20.133Z,23.30
2018-11-29T00:47:48.862Z,24.00
2018-11-29T00:50:17.858Z,23.50
2018-11-29T00:52:47.022Z,24.03
2018-11-29T00:55:16.220Z,23.43
2018-11-29T00:57:44.665Z,22.77
2018-11-29T01:00:14.157Z,22.80
2018-11-29T01:02:42.634Z,23.27
2018-11-29T01:05:11.051Z,22.70
2018-11-29T01:07:39.767Z,24.13
2018-11-29T01:10:09.765Z,23.40
2018-11-29T01:12:38.166Z,23.20
2018-11-29T01:15:09.401Z,22.80
2018-11-29T01:17:37.835Z,22.87
2018-11-29T01:20:14.124Z,22.80
2018-11-29T01:22:42.477Z,23.93
2018-11-29T01:25:11.778Z,23.50
2018-11-29T01:27:40.566Z,23.57
2018-11-29T01:30:26.627Z,22.43
2018-11-29T01:32:54.935Z,23.63
2018-11-29T01:35:24.294Z,23.97
2018-11-29T01:37:51.593Z,23.53
2018-11-29T01:40:22.582Z,22.53
2018-11-29T01:42:58.480Z,23.73
2018-11-29T01:45:27.055Z,24.13
2018-11-29T01:47:55.457Z,23.90
2018-11-29T01:50:23.774Z,22.77
2018-11-29T01:52:52.094Z,22.40
2018-11-29T01:55:20.418Z,23.10
2018-11-29T01:57:48.761Z,22.70
2018-11-29T02:00:17.623Z,22.40
2018-11-29T02:02:47.964Z,21.83
2018-11-29T02:05:16.276Z,22.23
2018-11-29T02:07:44.666Z,22.90
2018-11-29T02:10:19.974Z,25.03
2018-11-29T02:12:48.250Z,24.07
2018-11-29T02:15:16.604Z,22.70
2018-11-29T02:17:44.909Z,23.63
2018-11-29T02:20:20.578Z,22.80
2018-11-29T02:22:48.903Z,22.30
2018-11-29T02:25:17.217Z,23.50
2018-11-29T02:27:45.535Z,22.87
2018-11-29T02:30:16.553Z,22.37
2018-11-29T02:32:44.950Z,22.73
2018-11-29T02:35:13.374Z,23.27
2018-11-29T02:37:41.906Z,22.00
2018-11-29T02:40:12.107Z,21.60
2018-11-29T02:42:40.546Z,23.03
2018-11-29T02:45:12.375Z,23.00
2018-11-29T02:47:40.722Z,22.43
2018-11-29T02:50:09.984Z,21.27
2018-11-29T02:52:38.363Z,23.13
2018-11-29T02:55:09.646Z,23.13
2018-11-29T02:57:37.987Z,21.67
2018-11-29T03:00:13.339Z,23.57
2018-11-29T03:02:41.688Z,23.07
2018-11-29T03:05:10.225Z,22.83
2018-11-29T03:07:38.597Z,23.03
2018-11-29T03:10:08.380Z,23.80
2018-11-29T03:12:36.734Z,23.70
2018-11-29T03:15:06.899Z,22.43
2018-11-29T03:17:35.247Z,24.07
2018-11-29T03:20:03.978Z,25.20
2018-11-29T03:22:32.338Z,24.63
2018-11-29T03:25:00.634Z,25.80
2018-11-29T03:27:28.937Z,24.67
2018-11-29T03:29:57.335Z,25.17
2018-11-29T03:32:25.702Z,24.80
2018-11-29T03:34:54.030Z,26.40
2018-11-29T03:37:22.393Z,26.10
2018-11-29T03:39:50.786Z,26.10
2018-11-29T03:42:19.127Z,26.87
2018-11-29T03:44:47.564Z,24.63
2018-11-29T03:47:15.897Z,26.03
2018-11-29T03:49:44.292Z,25.37
2018-11-29T03:52:12.627Z,25.93
2018-11-29T03:54:40.976Z,26.50
2018-11-29T03:57:09.292Z,26.03
2018-11-29T03:59:37.653Z,23.20
2018-11-29T04:02:06.381Z,24.83
2018-11-29T04:04:34.763Z,24.47
2018-11-29T04:07:03.162Z,25.67
2018-11-29T04:09:31.479Z,25.93
2018-11-29T04:11:59.824Z,23.57
2018-11-29T04:14:28.195Z,24.40
2018-11-29T04:16:56.659Z,24.67
2018-11-29T04:19:24.974Z,23.77
2018-11-29T04:21:53.336Z,25.40
2018-11-29T04:24:21.678Z,26.83
2018-11-29T04:26:50.114Z,27.50
2018-11-29T04:29:18.497Z,27.73
2018-11-29T04:31:46.848Z,29.10
2018-11-29T04:34:15.404Z,28.07
2018-11-29T04:36:43.935Z,27.20
2018-11-29T04:39:12.287Z,28.40
2018-11-29T04:41:40.620Z,27.87
2018-11-29T04:44:08.985Z,26.83
2018-11-29T04:46:46.571Z,28.73
2018-11-29T04:49:14.927Z,29.50
2018-11-29T04:51:43.473Z,27.93
2018-11-29T04:54:11.841Z,30.23
2018-11-29T04:56:40.211Z,30.63
2018-11-29T04:59:09.221Z,28.93
2018-11-29T05:01:38.089Z,31.57
2018-11-29T05:04:06.851Z,30.57
2018-11-29T05:06:35.209Z,32.20
2018-11-29T05:09:05.166Z,29.60
2018-11-29T05:11:33.527Z,29.83
2018-11-29T05:14:01.876Z,31.90
2018-11-29T05:16:30.221Z,32.90
2018-11-29T05:18:58.563Z,32.73
2018-11-29T05:21:26.931Z,32.87
2018-11-29T05:23:55.334Z,33.67
2018-11-29T05:26:23.668Z,33.37
2018-11-29T05:28:52.037Z,35.30
2018-11-29T05:31:20.599Z,32.10
2018-11-29T05:33:48.936Z,32.03
2018-11-29T05:36:17.336Z,32.97
2018-11-29T05:38:45.837Z,33.83
2018-11-29T05:41:14.419Z,32.93
2018-11-29T05:43:42.779Z,34.90
2018-11-29T05:46:11.235Z,33.07
2018-11-29T05:48:39.585Z,33.07
2018-11-29T05:51:07.925Z,34.00
2018-11-29T05:53:36.268Z,32.90
2018-11-29T05:56:04.689Z,34.50
2018-11-29T05:58:33.059Z,34.80
2018-11-29T06:01:04.920Z,34.13
2018-11-29T06:03:33.357Z,33.33
2018-11-29T06:06:01.678Z,36.40
2018-11-29T06:08:30.092Z,36.17
2018-11-29T06:10:58.551Z,36.40
2018-11-29T06:13:26.872Z,36.47
2018-11-29T06:15:55.383Z,35.73
2018-11-29T06:18:23.763Z,37.00
2018-11-29T06:20:52.106Z,37.90
2018-11-29T06:23:20.479Z,35.87
2018-11-29T06:25:48.832Z,37.17
2018-11-29T06:28:17.190Z,37.87
2018-11-29T06:30:45.548Z,36.27
2018-11-29T06:33:14.015Z,37.03
2018-11-29T06:35:42.468Z,38.30
2018-11-29T06:38:11.082Z,38.57
2018-11-29T06:40:39.507Z,38.93
2018-11-29T06:43:07.945Z,38.87
2018-11-29T06:45:36.330Z,38.37
2018-11-29T06:48:04.795Z,38.20
2018-11-29T06:50:33.179Z,37.07
2018-11-29T06:53:01.476Z,38.33
2018-11-29T06:55:29.766Z,38.77
2018-11-29T06:57:58.125Z,40.33
2018-11-29T07:00:30.460Z,39.67
2018-11-29T07:02:58.864Z,40.60
2018-11-29T07:05:27.203Z,42.07
2018-11-29T07:07:55.663Z,42.27
2018-11-29T07:10:29.362Z,40.37
2018-11-29T07:12:57.714Z,40.20
2018-11-29T07:15:26.121Z,40.50
2018-11-29T07:17:54.619Z,41.70
2018-11-29T07:20:23.088Z,43.37
2018-11-29T07:22:51.399Z,41.67
2018-11-29T07:25:19.886Z,42.13
2018-11-29T07:27:48.243Z,42.23
2018-11-29T07:30:18.195Z,40.97
2018-11-29T07:32:46.952Z,43.97
2018-11-29T07:35:16.148Z,42.27
2018-11-29T07:37:44.556Z,37.70
2018-11-29T07:40:16.931Z,41.63
2018-11-29T07:42:48.247Z,41.40
2018-11-29T07:45:17.687Z,39.23
2018-11-29T07:47:46.547Z,40.97
2018-11-29T07:50:16.018Z,42.07
2018-11-29T07:52:44.355Z,41.67
2018-11-29T07:55:14.098Z,40.20
2018-11-29T07:57:42.737Z,41.00
2018-11-29T08:00:13.200Z,41.87
2018-11-29T08:02:41.589Z,42.57
2018-11-29T08:05:11.063Z,37.67
2018-11-29T08:07:40.364Z,41.40
2018-11-29T08:10:10.199Z,40.17
2018-11-29T08:12:38.636Z,40.20
2018-11-29T08:15:11.138Z,40.70
2018-11-29T08:17:39.467Z,41.60
2018-11-29T08:20:22.515Z,39.60
2018-11-29T08:22:50.885Z,40.40
2018-11-29T08:25:19.258Z,41.70
2018-11-29T08:27:47.583Z,38.27
2018-11-29T08:30:16.339Z,40.20
2018-11-29T08:32:44.695Z,39.87
2018-11-29T08:35:14.010Z,39.07
2018-11-29T08:37:43.648Z,37.47
2018-11-29T08:40:16.151Z,37.97
2018-11-29T08:42:44.544Z,39.37
2018-11-29T08:45:12.879Z,41.43
2018-11-29T08:47:41.457Z,40.70
2018-11-29T08:50:12.708Z,39.40
2018-11-29T08:52:41.987Z,41.30
2018-11-29T08:55:13.312Z,37.70
2018-11-29T08:57:41.723Z,38.83
2018-11-29T09:00:17.879Z,36.53
2018-11-29T09:02:46.220Z,37.13
2018-11-29T09:05:14.927Z,35.87
2018-11-29T09:07:44.243Z,35.43
2018-11-29T09:10:18.639Z,36.70
2018-11-29T09:12:47.053Z,37.13
2018-11-29T09:15:16.037Z,38.03
2018-11-29T09:17:44.367Z,34.93
2018-11-29T09:20:18.920Z,34.10
2018-11-29T09:22:47.308Z,36.40
2018-11-29T09:25:17.381Z,34.73
2018-11-29T09:27:45.757Z,35.17
2018-11-29T09:30:18.084Z,36.43
2018-11-29T09:32:47.274Z,34.13
2018-11-29T09:35:15.740Z,37.53
2018-11-29T09:37:44.121Z,34.63
2018-11-29T09:40:15.211Z,34.60
2018-11-29T09:42:43.786Z,34.80
2018-11-29T09:45:27.010Z,35.90
2018-11-29T09:47:56.109Z,37.63
2018-11-29T09:50:25.399Z,35.93
2018-11-29T09:52:53.760Z,33.63
2018-11-29T09:55:22.115Z,34.93
2018-11-29T09:57:51.028Z,34.17
2018-11-29T10:00:27.538Z,33.07
2018-11-29T10:03:25.669Z,33.27
2018-11-29T10:05:53.996Z,32.13
2018-11-29T10:08:26.106Z,32.03
2018-11-29T10:10:50.752Z,32.87
2018-11-29T10:13:19.124Z,31.90
2018-11-29T10:15:47.646Z,30.20
2018-11-29T10:18:16.051Z,32.13
2018-11-29T10:20:44.449Z,30.13
2018-11-29T10:23:12.840Z,30.73
2018-11-29T10:25:41.704Z,31.87
2018-11-29T10:28:13.492Z,30.57
2018-11-29T10:30:45.732Z,30.40
2018-11-29T10:33:14.081Z,30.90
2018-11-29T10:35:42.432Z,32.07
2018-11-29T10:38:10.794Z,30.33
2018-11-29T10:40:39.107Z,31.67
2018-11-29T10:43:07.572Z,32.43
2018-11-29T10:45:35.935Z,33.20
2018-11-29T10:48:04.322Z,30.40
2018-11-29T10:50:32.780Z,31.23
2018-11-29T10:53:01.645Z,32.67
2018-11-29T10:55:30.032Z,31.23
2018-11-29T10:57:58.472Z,30.30
2018-11-29T11:00:32.466Z,32.37
2018-11-29T11:03:07.420Z,30.97
2018-11-29T11:05:36.247Z,32.20
2018-11-29T11:08:08.530Z,31.37
2018-11-29T11:10:33.516Z,29.33
2018-11-29T11:13:01.912Z,28.73
2018-11-29T11:15:30.288Z,30.07
2018-11-29T11:17:58.676Z,30.97
2018-11-29T11:20:27.056Z,31.40
2018-11-29T11:22:55.411Z,31.67
2018-11-29T11:25:23.747Z,31.93
2018-11-29T11:27:52.239Z,29.53
2018-11-29T11:30:21.537Z,29.60
2018-11-29T11:32:50.821Z,29.17
2018-11-29T11:35:19.179Z,32.00
2018-11-29T11:37:47.643Z,30.50
2018-11-29T11:40:16.674Z,30.00
2018-11-29T11:42:45.901Z,29.20
2018-11-29T11:45:17.099Z,30.17
2018-11-29T11:47:45.462Z,32.77
2018-11-29T11:50:15.892Z,30.30
2018-11-29T11:52:44.250Z,29.77
2018-11-29T11:55:18.666Z,30.10
2018-11-29T11:57:41.912Z,29.90
2018-11-29T12:00:26.310Z,31.03
2018-11-29T12:02:56.099Z,28.73
2018-11-29T12:05:24.467Z,30.67
2018-11-29T12:07:53.773Z,29.70
2018-11-29T12:10:22.196Z,27.63
2018-11-29T12:12:50.575Z,29.77
2018-11-29T12:15:18.928Z,29.87
2018-11-29T12:17:47.808Z,29.50
2018-11-29T12:20:17.112Z,29.23
2018-11-29T12:22:45.625Z,30.93
2018-11-29T12:25:17.843Z,30.43
2018-11-29T12:27:46.351Z,29.30
2018-11-29T12:30:20.044Z,29.80
2018-11-29T12:32:48.559Z,32.60
2018-11-29T12:35:16.902Z,31.43
2018-11-29T12:37:45.284Z,30.67
2018-11-29T12:40:14.799Z,30.37
2018-11-29T12:42:43.171Z,30.83
2018-11-29T12:45:12.460Z,29.63
2018-11-29T12:47:40.889Z,29.83
2018-11-29T12:50:16.868Z,28.83
2018-11-29T12:52:45.283Z,29.27
2018-11-29T12:55:14.577Z,30.83
2018-11-29T12:57:42.968Z,31.07
2018-11-29T13:00:13.268Z,30.77
2018-11-29T13:02:47.924Z,33.50
2018-11-29T13:05:16.340Z,31.37
2018-11-29T13:07:44.976Z,31.53
2018-11-29T13:10:15.414Z,29.80
2018-11-29T13:12:43.800Z,31.43
2018-11-29T13:15:15.327Z,28.73
2018-11-29T13:17:43.607Z,29.47
2018-11-29T13:20:17.300Z,32.50
2018-11-29T13:22:45.741Z,30.17
2018-11-29T13:25:16.027Z,30.43
2018-11-29T13:27:44.520Z,30.43
2018-11-29T13:30:15.873Z,30.37
2018-11-29T13:32:44.423Z,31.53
2018-11-29T13:35:15.904Z,29.10
2018-11-29T13:37:46.002Z,31.47
2018-11-29T13:40:14.395Z,31.30
2018-11-29T13:42:42.808Z,28.63
2018-11-29T13:45:11.494Z,30.67
2018-11-29T13:47:40.473Z,28.57
2018-11-29T13:50:11.756Z,29.87
2018-11-29T13:52:39.809Z,29.73
2018-11-29T13:56:11.180Z,31.10
2018-11-29T13:58:39.540Z,27.57
2018-11-29T14:01:07.987Z,27.20
2018-11-29T14:03:36.466Z,27.53
2018-11-29T14:06:04.840Z,27.97
2018-11-29T14:08:33.173Z,27.30
2018-11-29T14:11:01.563Z,25.60
2018-11-29T14:13:29.946Z,26.90
2018-11-29T14:15:58.281Z,26.80
2018-11-29T14:18:26.710Z,27.13
2018-11-29T14:20:55.048Z,24.33
2018-11-29T14:23:23.375Z,26.13
2018-11-29T14:25:51.745Z,25.20
2018-11-29T14:28:20.091Z,25.27
2018-11-29T14:30:48.437Z,23.70
2018-11-29T14:33:16.754Z,24.57
2018-11-29T14:35:45.122Z,23.73
2018-11-29T14:38:13.530Z,23.97
2018-11-29T14:40:41.899Z,25.93
2018-11-29T14:43:10.299Z,25.03
2018-11-29T14:45:38.678Z,23.67
2018-11-29T14:48:07.034Z,23.47
2018-11-29T14:50:36.903Z,22.43
2018-11-29T14:53:05.775Z,22.83
2018-11-29T14:55:34.120Z,22.13
2018-11-29T14:58:02.427Z,22.70
2018-11-29T15:00:30.829Z,22.87
2018-11-29T15:03:00.524Z,22.70
2018-11-29T15:05:30.356Z,21.53
2018-11-29T15:07:58.756Z,22.93
2018-11-29T15:10:27.148Z,22.17
2018-11-29T15:12:55.530Z,22.67
2018-11-29T15:15:23.904Z,23.73
2018-11-29T15:17:53.483Z,22.57
2018-11-29T15:20:25.319Z,22.53
2018-11-29T15:22:53.679Z,22.07
2018-11-29T15:25:22.048Z,19.13
2018-11-29T15:27:50.403Z,19.37
2018-11-29T15:30:20.555Z,20.80
2018-11-29T15:32:48.494Z,19.60
2018-11-29T15:35:16.827Z,20.17
2018-11-29T15:37:45.237Z,20.80
2018-11-29T15:40:16.463Z,21.00
2018-11-29T15:42:45.103Z,20.53
2018-11-29T15:45:17.088Z,20.00
2018-11-29T15:47:45.618Z,19.77
2018-11-29T15:50:14.717Z,19.93
2018-11-29T15:52:43.201Z,19.87
2018-11-29T15:55:17.432Z,19.70
2018-11-29T15:57:46.720Z,18.10
2018-11-29T16:00:18.223Z,19.73
2018-11-29T16:02:47.415Z,19.00
2018-11-29T16:05:15.879Z,17.80
2018-11-29T16:07:44.298Z,19.43
2018-11-29T16:10:15.963Z,19.27
2018-11-29T16:12:44.300Z,18.60
2018-11-29T16:15:14.638Z,20.13
2018-11-29T16:17:43.475Z,18.60
2018-11-29T16:20:17.122Z,19.20
2018-11-29T16:22:44.472Z,17.53
2018-11-29T16:25:12.915Z,17.20
2018-11-29T16:27:41.284Z,18.83
2018-11-29T16:30:20.528Z,18.27
2018-11-29T16:32:48.887Z,17.20
2018-11-29T16:35:17.205Z,17.70
2018-11-29T16:37:45.582Z,17.47
2018-11-29T16:40:14.001Z,16.70
2018-11-29T16:42:42.424Z,16.17
2018-11-29T16:45:12.259Z,17.20
2018-11-29T16:47:40.988Z,16.93
2018-11-29T16:50:11.831Z,16.87
2018-11-29T16:52:40.228Z,16.77
2018-11-29T16:55:09.565Z,17.10
2018-11-29T16:57:38.571Z,17.83
2018-11-29T17:00:22.184Z,17.27
2018-11-29T17:02:50.655Z,16.37
2018-11-29T17:05:19.132Z,15.07
2018-11-29T17:07:47.696Z,15.50
2018-11-29T17:10:18.182Z,14.93
2018-11-29T17:12:50.286Z,15.93
2018-11-29T17:15:19.138Z,15.20
2018-11-29T17:17:47.584Z,14.13
2018-11-29T17:20:17.973Z,15.40
2018-11-29T17:22:46.317Z,14.33
2018-11-29T17:25:14.751Z,14.13
2018-11-29T17:27:43.107Z,14.83
2018-11-29T17:30:15.649Z,15.87
2018-11-29T17:32:44.332Z,15.23
2018-11-29T17:35:12.752Z,14.10
2018-11-29T17:37:41.240Z,14.50
2018-11-29T17:40:11.027Z,14.30
2018-11-29T17:42:39.540Z,14.27
2018-11-29T17:45:14.001Z,13.77
2018-11-29T17:47:43.133Z,13.70
2018-11-29T17:50:22.169Z,13.70
2018-11-29T17:52:50.672Z,14.20
2018-11-29T17:55:19.052Z,14.03
2018-11-29T17:57:47.475Z,14.63
2018-11-29T18:00:18.971Z,14.27
2018-11-29T18:02:47.360Z,14.00
2018-11-29T18:05:15.739Z,13.23
2018-11-29T18:07:44.103Z,13.83
2018-11-29T18:10:16.626Z,14.67
2018-11-29T18:12:45.627Z,14.67
2018-11-29T18:15:15.543Z,14.70
2018-11-29T18:17:43.912Z,14.73
2018-11-29T18:20:12.895Z,14.33
2018-11-29T18:22:41.696Z,14.57
2018-11-29T18:25:11.190Z,14.20
2018-11-29T18:27:40.075Z,14.50
2018-11-29T18:30:12.771Z,15.27
2018-11-29T18:32:41.170Z,14.30
2018-11-29T18:35:10.626Z,14.03
2018-11-29T18:37:39.222Z,13.70
2018-11-29T18:40:17.251Z,14.60
2018-11-29T18:42:46.710Z,15.07
2018-11-29T18:45:16.068Z,15.40
2018-11-29T18:47:45.216Z,15.97
2018-11-29T18:50:14.835Z,15.63
2018-11-29T18:52:43.243Z,16.77
2018-11-29T18:55:11.627Z,14.83
2018-11-29T18:57:40.059Z,15.33
2018-11-29T19:00:13.494Z,15.60
2018-11-29T19:02:42.075Z,14.97
2018-11-29T19:05:10.579Z,13.60
2018-11-29T19:07:39.182Z,14.53
2018-11-29T19:10:13.084Z,14.27
2018-11-29T19:12:43.996Z,13.60
2018-11-29T19:15:13.098Z,13.00
2018-11-29T19:17:41.511Z,13.43
2018-11-29T19:20:11.902Z,13.97
2018-11-29T19:22:40.317Z,13.23
2018-11-29T19:25:13.978Z,13.93
2018-11-29T19:27:41.427Z,12.77
2018-11-29T19:30:14.102Z,12.93
2018-11-29T19:32:42.491Z,12.23
2018-11-29T19:35:11.567Z,12.43
2018-11-29T19:37:39.979Z,13.03
2018-11-29T19:40:11.327Z,12.40
2018-11-29T19:42:39.712Z,13.63
2018-11-29T19:45:10.865Z,13.17
2018-11-29T19:47:40.507Z,12.43
2018-11-29T19:50:11.212Z,12.70
2018-11-29T19:52:39.551Z,13.27
2018-11-29T19:55:10.019Z,12.47
2018-11-29T19:57:38.348Z,13.40
2018-11-29T20:00:09.344Z,13.20
2018-11-29T20:02:37.791Z,13.00
2018-11-29T20:05:07.361Z,12.17
2018-11-29T20:07:35.982Z,12.90
2018-11-29T20:10:04.725Z,12.83
2018-11-29T20:12:33.084Z,12.43
2018-11-29T20:15:01.532Z,13.13
2018-11-29T20:17:29.819Z,12.13
2018-11-29T20:19:58.364Z,11.93
2018-11-29T20:22:26.821Z,12.33
2018-11-29T20:24:55.258Z,11.53
2018-11-29T20:27:23.651Z,10.87
2018-11-29T20:29:52.132Z,11.33
2018-11-29T20:32:20.717Z,10.70
2018-11-29T20:34:49.098Z,10.93
2018-11-29T20:37:17.433Z,11.87
2018-11-29T20:39:45.819Z,11.47
2018-11-29T20:42:14.197Z,10.80
2018-11-29T20:44:42.691Z,11.33
2018-11-29T20:47:11.103Z,10.63
2018-11-29T20:49:39.380Z,12.23
2018-11-29T20:52:07.891Z,10.40
2018-11-29T20:54:36.542Z,10.47
2018-11-29T20:57:04.907Z,10.90
2018-11-29T20:59:33.316Z,10.13
2018-11-29T21:02:01.767Z,10.27
2018-11-29T21:04:30.273Z,10.67
2018-11-29T21:06:58.639Z,10.27
2018-11-29T21:09:27.046Z,10.90
2018-11-29T21:11:55.736Z,10.57
2018-11-29T21:14:24.220Z,10.47
2018-11-29T21:16:52.670Z,11.40
2018-11-29T21:19:21.078Z,10.60
2018-11-29T21:21:49.443Z,10.83
2018-11-29T21:24:17.866Z,10.43
2018-11-29T21:26:46.248Z,9.77
2018-11-29T21:29:14.623Z,10.13
2018-11-29T21:31:43.006Z,10.77
2018-11-29T21:34:11.434Z,10.90
2018-11-29T21:36:39.863Z,10.50
2018-11-29T21:39:08.207Z,10.00
2018-11-29T21:41:36.688Z,10.90
2018-11-29T21:44:05.224Z,10.83
2018-11-29T21:46:33.563Z,10.30
2018-11-29T21:49:01.943Z,11.23
2018-11-29T21:51:30.386Z,10.47
2018-11-29T21:53:58.777Z,10.33
2018-11-29T21:56:27.290Z,11.27
2018-11-29T21:58:55.680Z,11.10
2018-11-29T22:01:24.075Z,10.00
2018-11-29T22:03:52.514Z,10.50
2018-11-29T22:06:20.856Z,9.63
2018-11-29T22:08:49.199Z,9.83
2018-11-29T22:11:17.556Z,11.30
2018-11-29T22:13:45.919Z,9.50
2018-11-29T22:16:14.300Z,10.27
2018-11-29T22:18:42.887Z,9.93
2018-11-29T22:21:11.297Z,10.37
2018-11-29T22:23:40.485Z,9.70
2018-11-29T22:26:10.811Z,10.40
2018-11-29T22:28:39.268Z,9.27
2018-11-29T22:31:07.632Z,9.03
2018-11-29T22:33:35.959Z,10.57
2018-11-29T22:36:04.327Z,9.63
2018-11-29T22:38:32.692Z,9.13
2018-11-29T22:41:01.043Z,10.00
2018-11-29T22:43:29.493Z,8.97
2018-11-29T22:45:57.755Z,9.60
2018-11-29T22:48:26.095Z,9.10
2018-11-29T22:50:54.386Z,9.30
2018-11-29T22:53:22.768Z,9.13
2018-11-29T22:55:51.109Z,9.03
2018-11-29T22:58:19.465Z,10.83
2018-11-29T23:00:50.040Z,9.70
2018-11-29T23:03:18.470Z,10.03
2018-11-29T23:05:46.898Z,9.03
2018-11-29T23:08:15.239Z,8.20
2018-11-29T23:10:43.587Z,9.20
2018-11-29T23:13:11.963Z,8.40
2018-11-29T23:15:40.371Z,9.13
2018-11-29T23:18:08.736Z,8.40
2018-11-29T23:20:37.131Z,8.33
2018-11-29T23:23:05.585Z,7.70
2018-11-29T23:25:34.176Z,9.23
2018-11-29T23:28:02.804Z,7.93
2018-11-29T23:30:31.231Z,8.23
2018-11-29T23:32:59.621Z,8.53
2018-11-29T23:35:28.023Z,7.70
2018-11-29T23:37:56.388Z,8.40
2018-11-29T23:40:24.682Z,8.20
2018-11-29T23:42:53.059Z,8.57
2018-11-29T23:45:21.412Z,7.77
2018-11-29T23:47:49.858Z,7.97
2018-11-29T23:50:18.801Z,7.40
2018-11-29T23:52:47.267Z,8.17
2018-11-29T23:55:16.880Z,8.40
2018-11-29T23:57:45.243Z,8.73
